createdAt,value
2023-06-08T00:00:22.432Z,12.10
2023-06-08T00:03:28.809Z,12.80
2023-06-08T00:06:15.862Z,12.70
2023-06-08T00:09:07.703Z,13.10
2023-06-08T00:11:55.672Z,12.50
2023-06-08T00:14:42.559Z,13.10
2023-06-08T00:17:28.975Z,11.90
2023-06-08T00:20:14.998Z,11.70
2023-06-08T00:23:01.253Z,11.90
2023-06-08T00:25:47.325Z,13.60
2023-06-08T00:28:33.387Z,16.40
2023-06-08T00:31:20.040Z,12.70
2023-06-08T00:34:05.925Z,13.10
2023-06-08T00:36:51.889Z,12.50
2023-06-08T00:39:38.752Z,13.20
2023-06-08T00:42:25.123Z,13.40
2023-06-08T00:45:11.122Z,13.30
2023-06-08T00:47:57.471Z,12.90
2023-06-08T00:50:46.352Z,11.90
2023-06-08T00:53:32.860Z,12.20
2023-06-08T00:56:19.221Z,14.30
2023-06-08T00:59:06.437Z,12.30
2023-06-08T01:02:00.970Z,11.70
2023-06-08T01:04:51.383Z,11.00
2023-06-08T01:07:51.509Z,10.80
2023-06-08T01:10:40.625Z,12.10
2023-06-08T01:13:37.376Z,12.30
2023-06-08T01:16:29.413Z,10.80
2023-06-08T01:19:18.230Z,12.30
2023-06-08T01:22:21.212Z,11.80
2023-06-08T01:25:11.347Z,13.80
2023-06-08T01:28:12.663Z,11.10
2023-06-08T01:30:59.084Z,11.70
2023-06-08T01:33:45.289Z,12.30
2023-06-08T01:36:31.544Z,13.30
2023-06-08T01:39:32.565Z,10.70
2023-06-08T01:42:19.991Z,12.40
2023-06-08T01:45:08.966Z,12.00
2023-06-08T01:47:57.439Z,12.30
2023-06-08T01:50:44.534Z,11.10
2023-06-08T01:53:30.977Z,11.80
2023-06-08T01:56:17.515Z,10.60
2023-06-08T01:59:03.535Z,10.20
2023-06-08T02:01:49.449Z,11.20
2023-06-08T02:04:35.134Z,11.50
2023-06-08T02:07:23.188Z,11.30
2023-06-08T02:10:09.899Z,9.70
2023-06-08T02:12:56.547Z,10.00
2023-06-08T02:15:43.077Z,9.30
2023-06-08T02:18:29.401Z,9.00
2023-06-08T02:21:16.662Z,10.80
2023-06-08T02:24:03.758Z,10.70
2023-06-08T02:26:52.528Z,11.20
2023-06-08T02:29:39.924Z,10.30
2023-06-08T02:32:26.059Z,11.20
2023-06-08T02:35:12.327Z,11.80
2023-06-08T02:38:01.228Z,11.60
2023-06-08T02:40:47.410Z,12.30
2023-06-08T02:43:33.978Z,11.90
2023-06-08T02:46:20.160Z,11.50
2023-06-08T02:49:06.700Z,11.30
2023-06-08T02:51:52.851Z,10.70
2023-06-08T02:54:38.978Z,11.20
2023-06-08T02:57:24.989Z,10.40
2023-06-08T03:00:15.383Z,10.50
2023-06-08T03:03:16.514Z,9.20
2023-06-08T03:06:03.671Z,11.00
2023-06-08T03:08:55.525Z,11.70
2023-06-08T03:11:43.333Z,11.60
2023-06-08T03:14:30.369Z,11.60
2023-06-08T03:17:18.281Z,11.30
2023-06-08T03:20:05.482Z,9.90
2023-06-08T03:22:53.933Z,10.00
2023-06-08T03:25:39.868Z,11.60
2023-06-08T03:28:26.255Z,11.00
2023-06-08T03:31:13.442Z,10.90
2023-06-08T03:36:50.835Z,10.60
2023-06-08T03:39:39.281Z,11.00
2023-06-08T03:42:25.652Z,12.70
2023-06-08T03:45:13.333Z,12.40
2023-06-08T03:48:00.313Z,13.20
2023-06-08T03:50:46.447Z,15.20
2023-06-08T03:53:33.265Z,13.10
2023-06-08T03:56:19.299Z,14.00
2023-06-08T03:59:05.356Z,13.60
2023-06-08T04:01:52.436Z,11.00
2023-06-08T04:04:39.777Z,12.90
2023-06-08T04:07:25.642Z,13.40
2023-06-08T04:10:13.090Z,13.90
2023-06-08T04:13:00.483Z,16.50
2023-06-08T04:15:47.223Z,15.20
2023-06-08T04:18:36.250Z,15.90
2023-06-08T04:21:26.010Z,16.00
2023-06-08T04:24:13.893Z,14.60
2023-06-08T04:27:00.683Z,14.10
2023-06-08T04:29:47.891Z,16.10
2023-06-08T04:32:34.014Z,16.90
2023-06-08T04:35:20.361Z,15.90
2023-06-08T04:38:10.964Z,14.80
2023-06-08T04:40:56.906Z,15.70
2023-06-08T04:43:51.583Z,13.60
2023-06-08T04:46:42.574Z,14.00
2023-06-08T04:49:35.346Z,13.00
2023-06-08T04:52:23.378Z,12.80
2023-06-08T04:55:13.759Z,12.40
2023-06-08T04:57:59.832Z,11.90
2023-06-08T05:00:46.023Z,10.90
2023-06-08T05:03:34.013Z,11.10
2023-06-08T05:06:21.447Z,11.20
2023-06-08T05:09:08.248Z,9.40
2023-06-08T05:11:54.093Z,11.00
2023-06-08T05:14:40.085Z,10.90
2023-06-08T05:17:26.313Z,10.40
2023-06-08T05:20:12.316Z,10.10
2023-06-08T05:22:59.153Z,7.90
2023-06-08T05:25:44.673Z,9.00
2023-06-08T05:28:30.787Z,9.40
2023-06-08T05:31:16.970Z,9.30
2023-06-08T05:34:03.017Z,9.20
2023-06-08T05:36:48.867Z,8.80
2023-06-08T05:39:35.162Z,9.10
2023-06-08T05:42:21.137Z,8.20
2023-06-08T05:45:07.173Z,9.00
2023-06-08T05:47:53.169Z,8.20
2023-06-08T05:50:39.172Z,9.40
2023-06-08T05:53:25.650Z,10.10
2023-06-08T05:56:11.916Z,7.80
2023-06-08T05:58:57.750Z,7.20
2023-06-08T06:01:43.846Z,7.50
2023-06-08T06:04:36.728Z,8.30
2023-06-08T06:07:23.619Z,6.80
2023-06-08T06:10:10.433Z,8.20
2023-06-08T06:12:56.474Z,7.40
2023-06-08T06:15:42.365Z,5.90
2023-06-08T06:18:28.677Z,5.70
2023-06-08T06:21:14.517Z,5.70
2023-06-08T06:24:00.717Z,5.30
2023-06-08T06:26:46.646Z,6.30
2023-06-08T06:29:32.592Z,5.50
2023-06-08T06:32:18.747Z,5.40
2023-06-08T06:35:05.169Z,6.50
2023-06-08T06:37:53.679Z,5.50
2023-06-08T06:40:40.360Z,6.70
2023-06-08T06:43:26.434Z,5.00
2023-06-08T06:46:20.138Z,4.40
2023-06-08T06:49:06.148Z,4.00
2023-06-08T06:51:52.057Z,3.80
2023-06-08T06:54:38.063Z,7.10
2023-06-08T06:57:24.042Z,4.20
2023-06-08T07:00:10.548Z,4.40
2023-06-08T07:03:00.648Z,4.10
2023-06-08T07:05:46.692Z,6.10
2023-06-08T07:08:33.140Z,5.60
2023-06-08T07:11:18.769Z,5.30
2023-06-08T07:14:04.382Z,8.80
2023-06-08T07:16:50.509Z,3.90
2023-06-08T07:19:36.812Z,4.80
2023-06-08T07:22:26.319Z,4.00
2023-06-08T07:25:49.536Z,3.40
2023-06-08T07:28:34.725Z,3.40
2023-06-08T07:31:21.210Z,3.40
2023-06-08T07:34:07.446Z,6.10
2023-06-08T07:36:53.741Z,3.50
2023-06-08T07:39:39.579Z,3.50
2023-06-08T07:42:25.703Z,3.60
2023-06-08T07:45:12.373Z,3.70
2023-06-08T07:47:59.130Z,3.10
2023-06-08T07:50:44.608Z,4.50
2023-06-08T07:53:36.987Z,3.50
2023-06-08T07:56:22.812Z,3.40
2023-06-08T07:59:08.517Z,3.00
2023-06-08T08:01:54.446Z,3.80
2023-06-08T08:04:40.891Z,3.50
2023-06-08T08:07:27.058Z,5.00
2023-06-08T08:10:13.173Z,3.90
2023-06-08T08:12:59.199Z,4.80
2023-06-08T08:15:46.167Z,3.40
2023-06-08T08:18:32.423Z,3.60
2023-06-08T08:21:18.599Z,5.00
2023-06-08T08:24:06.019Z,3.30
2023-06-08T08:26:55.856Z,5.00
2023-06-08T08:29:41.465Z,4.60
2023-06-08T08:32:27.850Z,3.40
2023-06-08T08:35:14.923Z,4.60
2023-06-08T08:38:00.983Z,6.00
2023-06-08T08:40:47.840Z,4.20
2023-06-08T08:43:39.716Z,3.30
2023-06-08T08:46:27.653Z,5.10
2023-06-08T08:49:15.847Z,6.80
2023-06-08T08:52:02.413Z,4.60
2023-06-08T08:54:56.147Z,3.40
2023-06-08T08:57:42.139Z,3.60
2023-06-08T09:00:28.743Z,4.10
2023-06-08T09:03:15.857Z,3.90
2023-06-08T09:06:01.818Z,5.10
2023-06-08T09:08:48.339Z,5.40
2023-06-08T09:11:35.283Z,3.90
2023-06-08T09:14:20.788Z,4.10
2023-06-08T09:17:07.681Z,3.50
2023-06-08T09:19:53.928Z,4.50
2023-06-08T09:22:40.234Z,4.00
2023-06-08T09:25:37.125Z,3.70
2023-06-08T09:28:27.756Z,6.20
2023-06-08T09:31:16.693Z,5.20
2023-06-08T09:34:06.822Z,4.80
2023-06-08T09:37:04.102Z,5.10
2023-06-08T09:39:50.358Z,5.60
2023-06-08T09:42:46.678Z,5.20
2023-06-08T09:45:42.928Z,5.00
2023-06-08T09:48:28.794Z,4.40
2023-06-08T09:51:14.615Z,4.70
2023-06-08T09:54:01.133Z,4.20
2023-06-08T09:56:47.809Z,5.10
2023-06-08T09:59:38.205Z,5.90
2023-06-08T10:02:31.329Z,5.30
2023-06-08T10:05:18.260Z,5.50
2023-06-08T10:08:05.310Z,4.60
2023-06-08T10:10:51.315Z,4.60
2023-06-08T10:13:37.585Z,4.20
2023-06-08T10:16:24.270Z,3.90
2023-06-08T10:19:11.340Z,5.00
2023-06-08T10:21:57.341Z,4.10
2023-06-08T10:24:59.876Z,5.00
2023-06-08T10:27:52.536Z,4.70
2023-06-08T10:30:40.949Z,4.60
2023-06-08T10:33:30.978Z,5.80
2023-06-08T10:36:16.890Z,4.80
2023-06-08T10:39:07.420Z,4.10
2023-06-08T10:41:54.090Z,4.70
2023-06-08T10:44:42.413Z,4.10
2023-06-08T10:47:32.426Z,4.80
2023-06-08T10:50:18.418Z,4.80
2023-06-08T10:53:04.279Z,3.70
2023-06-08T10:55:50.806Z,4.10
2023-06-08T10:58:49.585Z,4.10
2023-06-08T11:01:36.558Z,3.70
2023-06-08T11:04:30.720Z,4.00
2023-06-08T11:07:22.789Z,6.20
2023-06-08T11:10:08.812Z,4.60
2023-06-08T11:12:57.875Z,5.90
2023-06-08T11:15:44.724Z,3.90
2023-06-08T11:18:30.570Z,3.20
2023-06-08T11:21:17.027Z,5.80
2023-06-08T11:24:03.195Z,3.10
2023-06-08T11:27:03.198Z,3.60
2023-06-08T11:29:50.283Z,3.80
2023-06-08T11:32:38.106Z,3.40
2023-06-08T11:35:24.344Z,3.50
2023-06-08T11:38:11.010Z,4.00
2023-06-08T11:40:59.560Z,3.20
2023-06-08T11:43:48.216Z,3.50
2023-06-08T11:46:34.035Z,3.20
2023-06-08T11:49:20.386Z,3.00
2023-06-08T11:52:06.399Z,3.10
2023-06-08T11:54:53.533Z,4.20
2023-06-08T11:57:43.513Z,3.50
2023-06-08T12:00:33.395Z,3.70
2023-06-08T12:03:19.356Z,3.30
2023-06-08T12:06:05.769Z,4.30
2023-06-08T12:08:52.487Z,2.80
2023-06-08T12:11:38.433Z,3.10
2023-06-08T12:14:24.202Z,4.80
2023-06-08T12:17:15.457Z,3.20
2023-06-08T12:20:05.127Z,2.90
2023-06-08T12:22:51.814Z,2.50
2023-06-08T12:25:38.405Z,3.00
2023-06-08T12:28:25.416Z,3.00
2023-06-08T12:31:11.571Z,3.30
2023-06-08T12:33:57.598Z,3.30
2023-06-08T12:36:44.080Z,3.40
2023-06-08T12:39:30.804Z,2.80
2023-06-08T12:42:16.950Z,2.70
2023-06-08T12:45:03.081Z,3.40
2023-06-08T12:47:49.177Z,2.80
2023-06-08T12:50:35.313Z,3.40
2023-06-08T12:53:21.424Z,3.10
2023-06-08T12:56:07.108Z,3.40
2023-06-08T12:58:53.774Z,2.90
2023-06-08T13:01:40.078Z,3.20
2023-06-08T13:04:30.155Z,3.90
2023-06-08T13:07:16.598Z,3.40
2023-06-08T13:10:06.057Z,3.40
2023-06-08T13:12:53.024Z,3.30
2023-06-08T13:15:39.231Z,2.70
2023-06-08T13:18:28.751Z,2.70
2023-06-08T13:21:16.882Z,2.70
2023-06-08T13:24:02.536Z,3.00
2023-06-08T13:26:51.972Z,2.80
2023-06-08T13:29:40.775Z,3.20
2023-06-08T13:32:28.224Z,2.90
2023-06-08T13:35:14.070Z,2.80
2023-06-08T13:38:00.242Z,5.10
2023-06-08T13:40:47.660Z,2.30
2023-06-08T13:43:33.669Z,2.40
2023-06-08T13:46:19.307Z,3.10
2023-06-08T13:49:05.495Z,3.10
2023-06-08T13:51:52.288Z,3.20
2023-06-08T13:54:39.399Z,2.70
2023-06-08T13:57:25.447Z,3.20
2023-06-08T14:00:12.024Z,3.50
2023-06-08T14:03:00.219Z,2.40
2023-06-08T14:05:46.730Z,4.10
2023-06-08T14:08:32.807Z,3.30
2023-06-08T14:11:19.311Z,2.70
2023-06-08T14:14:05.269Z,3.00
2023-06-08T14:16:51.318Z,4.20
2023-06-08T14:19:37.239Z,4.00
2023-06-08T14:22:23.536Z,3.70
2023-06-08T14:25:09.909Z,3.80
2023-06-08T14:27:56.204Z,3.50
2023-06-08T14:30:42.391Z,3.90
2023-06-08T14:33:28.339Z,3.80
2023-06-08T14:36:14.089Z,4.00
2023-06-08T14:38:59.944Z,3.70
2023-06-08T14:41:46.032Z,2.70
2023-06-08T14:44:32.321Z,3.90
2023-06-08T14:47:18.978Z,4.20
2023-06-08T14:50:05.864Z,4.00
2023-06-08T14:52:51.929Z,3.20
2023-06-08T14:55:39.755Z,4.40
2023-06-08T14:58:25.265Z,3.70
2023-06-08T15:01:11.821Z,4.20
2023-06-08T15:03:57.932Z,3.60
2023-06-08T15:06:44.183Z,3.80
2023-06-08T15:09:29.898Z,4.10
2023-06-08T15:12:16.196Z,3.40
2023-06-08T15:15:01.680Z,3.90
2023-06-08T15:17:47.971Z,4.20
2023-06-08T15:20:33.996Z,4.30
2023-06-08T15:23:20.629Z,4.90
2023-06-08T15:26:06.163Z,4.00
2023-06-08T15:28:52.806Z,3.50
2023-06-08T15:31:38.909Z,4.90
2023-06-08T15:34:25.350Z,4.40
2023-06-08T15:37:11.123Z,4.50
2023-06-08T15:40:01.642Z,4.00
2023-06-08T15:42:48.631Z,4.10
2023-06-08T15:45:34.567Z,4.70
2023-06-08T15:48:20.381Z,4.30
2023-06-08T15:51:06.697Z,4.00
2023-06-08T15:53:52.579Z,4.10
2023-06-08T15:56:38.444Z,5.60
2023-06-08T15:59:24.062Z,4.80
2023-06-08T16:02:10.447Z,5.40
2023-06-08T16:04:56.346Z,3.80
2023-06-08T16:07:43.414Z,5.00
2023-06-08T16:10:29.181Z,5.10
2023-06-08T16:13:15.855Z,4.30
2023-06-08T16:16:01.321Z,5.00
2023-06-08T16:18:48.061Z,4.30
2023-06-08T16:21:36.017Z,5.40
2023-06-08T16:24:26.567Z,4.90
2023-06-08T16:27:14.266Z,4.50
2023-06-08T16:30:00.294Z,5.00
2023-06-08T16:32:46.317Z,4.90
2023-06-08T16:35:33.211Z,5.30
2023-06-08T16:38:19.122Z,5.30
2023-06-08T16:41:05.826Z,4.20
2023-06-08T16:43:52.181Z,5.10
2023-06-08T16:46:38.932Z,5.00
2023-06-08T16:49:25.106Z,6.10
2023-06-08T16:52:11.567Z,5.20
2023-06-08T16:54:57.602Z,5.40
2023-06-08T16:57:43.527Z,4.40
2023-06-08T17:00:29.212Z,5.00
2023-06-08T17:03:15.734Z,4.60
2023-06-08T17:06:02.738Z,5.30
2023-06-08T17:08:48.601Z,5.70
2023-06-08T17:11:34.519Z,5.20
2023-06-08T17:14:20.769Z,5.20
2023-06-08T17:17:06.562Z,6.00
2023-06-08T17:19:55.711Z,6.80
2023-06-08T17:22:41.799Z,6.00
2023-06-08T17:25:29.641Z,5.20
2023-06-08T17:28:15.740Z,4.80
2023-06-08T17:31:02.370Z,4.90
2023-06-08T17:33:50.141Z,5.40
2023-06-08T17:36:36.900Z,5.70
2023-06-08T17:39:23.045Z,4.90
2023-06-08T17:42:09.044Z,4.90
2023-06-08T17:44:54.840Z,5.40
2023-06-08T17:47:41.334Z,5.30
2023-06-08T17:50:26.970Z,5.30
2023-06-08T17:53:12.832Z,5.70
2023-06-08T17:55:59.086Z,5.90
2023-06-08T17:58:45.546Z,5.20
2023-06-08T18:01:31.419Z,5.50
2023-06-08T18:04:17.781Z,5.20
2023-06-08T18:07:06.353Z,5.50
2023-06-08T18:09:52.599Z,6.00
2023-06-08T18:12:38.648Z,5.10
2023-06-08T18:15:25.614Z,5.30
2023-06-08T18:18:13.623Z,5.00
2023-06-08T18:21:00.463Z,5.70
2023-06-08T18:23:47.598Z,5.80
2023-06-08T18:26:34.851Z,5.60
2023-06-08T18:29:21.371Z,6.80
2023-06-08T18:32:11.184Z,5.60
2023-06-08T18:34:57.021Z,5.10
2023-06-08T18:37:44.738Z,6.00
2023-06-08T18:40:31.303Z,6.50
2023-06-08T18:43:19.597Z,6.20
2023-06-08T18:46:06.265Z,5.80
2023-06-08T18:48:53.149Z,6.70
2023-06-08T18:51:40.007Z,5.70
2023-06-08T18:54:26.131Z,9.00
2023-06-08T18:57:12.469Z,8.10
2023-06-08T18:59:59.907Z,6.60
2023-06-08T19:02:47.342Z,6.40
2023-06-08T19:05:33.933Z,5.40
2023-06-08T19:08:20.173Z,5.50
2023-06-08T19:11:06.314Z,5.90
2023-06-08T19:13:55.452Z,5.50
2023-06-08T19:16:49.159Z,6.60
2023-06-08T19:19:36.507Z,5.50
2023-06-08T19:22:22.440Z,6.70
2023-06-08T19:25:09.584Z,6.20
2023-06-08T19:27:55.994Z,7.90
2023-06-08T19:30:41.793Z,6.60
2023-06-08T19:33:28.357Z,7.00
2023-06-08T19:36:14.897Z,6.20
2023-06-08T19:39:02.018Z,6.00
2023-06-08T19:41:52.179Z,7.60
2023-06-08T19:44:39.225Z,10.60
2023-06-08T19:47:27.619Z,6.30
2023-06-08T19:50:14.273Z,7.00
2023-06-08T19:53:00.694Z,6.60
2023-06-08T19:55:50.851Z,7.90
2023-06-08T19:58:37.246Z,7.50
2023-06-08T20:01:25.057Z,7.00
2023-06-08T20:04:14.137Z,7.00
2023-06-08T20:07:03.428Z,7.40
2023-06-08T20:09:49.351Z,7.40
2023-06-08T20:12:35.531Z,7.20
2023-06-08T20:15:21.181Z,7.10
2023-06-08T20:18:07.796Z,6.90
2023-06-08T20:20:53.905Z,7.30
2023-06-08T20:23:40.361Z,6.30
2023-06-08T20:26:26.801Z,7.90
2023-06-08T20:29:13.578Z,8.10
2023-06-08T20:32:01.302Z,7.90
2023-06-08T20:34:47.826Z,7.60
2023-06-08T20:37:34.850Z,8.10
2023-06-08T20:40:21.400Z,8.50
2023-06-08T20:43:08.102Z,8.30
2023-06-08T20:45:54.469Z,8.70
2023-06-08T20:48:40.224Z,8.50
2023-06-08T20:51:26.057Z,7.80
2023-06-08T20:54:11.650Z,7.60
2023-06-08T20:56:58.160Z,8.10
2023-06-08T20:59:43.978Z,8.50
2023-06-08T21:02:31.103Z,15.60
2023-06-08T21:05:18.616Z,9.30
2023-06-08T21:08:04.912Z,8.00
2023-06-08T21:10:50.920Z,8.60
2023-06-08T21:13:37.079Z,10.40
2023-06-08T21:16:22.904Z,9.30
2023-06-08T21:19:09.216Z,8.60
2023-06-08T21:21:55.058Z,9.10
2023-06-08T21:24:41.339Z,9.30
2023-06-08T21:27:27.378Z,8.90
2023-06-08T21:30:13.443Z,9.20
2023-06-08T21:32:59.959Z,9.60
2023-06-08T21:35:52.007Z,9.50
2023-06-08T21:38:50.869Z,8.60
2023-06-08T21:41:36.783Z,9.50
2023-06-08T21:44:23.033Z,8.50
2023-06-08T21:47:09.961Z,9.50
2023-06-08T21:49:56.425Z,8.70
2023-06-08T21:52:42.580Z,8.80
2023-06-08T21:55:28.126Z,7.80
2023-06-08T21:58:14.736Z,8.00
2023-06-08T22:01:00.891Z,8.90
2023-06-08T22:03:46.997Z,8.20
2023-06-08T22:06:32.990Z,8.70
2023-06-08T22:09:19.084Z,8.10
2023-06-08T22:12:05.974Z,9.80
2023-06-08T22:14:51.944Z,8.80
2023-06-08T22:17:38.518Z,8.10
2023-06-08T22:20:25.087Z,9.30
2023-06-08T22:23:11.299Z,9.40
2023-06-08T22:25:56.983Z,8.80
2023-06-08T22:28:43.241Z,9.20
2023-06-08T22:31:29.772Z,8.80
2023-06-08T22:34:15.900Z,9.10
2023-06-08T22:37:02.053Z,8.10
2023-06-08T22:39:47.945Z,8.80
2023-06-08T22:42:33.636Z,8.10
2023-06-08T22:45:19.659Z,8.30
2023-06-08T22:48:05.886Z,8.90
2023-06-08T22:50:51.956Z,8.80
2023-06-08T22:53:38.494Z,8.20
2023-06-08T22:56:24.148Z,8.50
2023-06-08T22:59:10.543Z,8.70
2023-06-08T23:01:56.145Z,8.60
2023-06-08T23:04:46.918Z,9.30
2023-06-08T23:07:33.046Z,8.40
2023-06-08T23:10:22.057Z,9.20
2023-06-08T23:13:13.275Z,9.40
2023-06-08T23:15:59.913Z,8.70
2023-06-08T23:18:45.753Z,7.80
2023-06-08T23:21:32.781Z,7.90
2023-06-08T23:24:18.831Z,8.70
2023-06-08T23:27:05.294Z,8.60
2023-06-08T23:29:51.685Z,8.70
2023-06-08T23:32:37.818Z,8.60
2023-06-08T23:35:24.210Z,8.80
2023-06-08T23:38:11.020Z,8.40
2023-06-08T23:40:57.528Z,8.90
2023-06-08T23:43:44.177Z,7.80
2023-06-08T23:46:31.704Z,9.50
2023-06-08T23:49:18.202Z,8.60
2023-06-08T23:52:04.422Z,9.80
2023-06-08T23:54:50.810Z,9.80
2023-06-08T23:57:36.657Z,8.70
